createdAt,value
2022-09-10T00:01:20.046Z,3.00
2022-09-10T00:03:50.130Z,2.00
2022-09-10T00:06:18.815Z,3.00
2022-09-10T00:08:46.619Z,1.00
2022-09-10T00:11:14.997Z,4.00
2022-09-10T00:13:42.803Z,3.00
2022-09-10T00:16:10.391Z,3.00
2022-09-10T00:18:39.420Z,3.00
2022-09-10T00:21:07.207Z,1.00
2022-09-10T00:23:34.948Z,6.20
2022-09-10T00:26:02.669Z,3.00
2022-09-10T00:28:30.475Z,1.00
2022-09-10T00:30:58.298Z,3.00
2022-09-10T00:33:26.306Z,3.60
2022-09-10T00:35:53.936Z,3.00
2022-09-10T00:38:21.657Z,1.40
2022-09-10T00:40:49.430Z,1.80
2022-09-10T00:43:18.941Z,1.00
2022-09-10T00:45:46.557Z,1.00
2022-09-10T00:48:14.496Z,1.00
2022-09-10T00:50:42.234Z,2.60
2022-09-10T00:53:10.686Z,3.20
2022-09-10T00:55:38.505Z,3.00
2022-09-10T00:58:06.267Z,3.00
2022-09-10T01:00:33.897Z,1.00
2022-09-10T01:03:01.904Z,2.00
2022-09-10T01:05:29.690Z,3.75
2022-09-10T01:07:58.311Z,0.00
2022-09-10T01:10:26.395Z,3.00
2022-09-10T01:12:54.660Z,1.40
2022-09-10T01:15:22.404Z,2.50
2022-09-10T01:17:50.097Z,1.80
2022-09-10T01:20:17.856Z,1.50
2022-09-10T01:22:45.589Z,2.00
2022-09-10T01:25:13.251Z,1.00
2022-09-10T01:27:41.416Z,1.00
2022-09-10T01:30:09.157Z,1.00
2022-09-10T01:32:37.031Z,3.60
2022-09-10T01:35:04.663Z,1.00
2022-09-10T01:37:32.228Z,1.00
2022-09-10T01:39:59.970Z,3.00
2022-09-10T01:42:28.530Z,0.20
2022-09-10T01:44:57.416Z,1.00
2022-09-10T01:47:25.049Z,1.00
2022-09-10T01:49:53.110Z,3.00
2022-09-10T01:52:22.322Z,1.00
2022-09-10T01:54:49.933Z,2.00
2022-09-10T01:57:17.566Z,3.00
2022-09-10T01:59:45.295Z,1.00
2022-09-10T02:02:13.456Z,2.00
2022-09-10T02:04:41.046Z,1.00
2022-09-10T02:07:08.789Z,1.00
2022-09-10T02:09:36.431Z,0.00
2022-09-10T02:12:04.348Z,1.00
2022-09-10T02:14:31.974Z,1.00
2022-09-10T02:16:59.853Z,1.00
2022-09-10T02:19:27.869Z,1.00
2022-09-10T02:21:56.330Z,0.25
2022-09-10T02:24:24.055Z,1.40
2022-09-10T02:26:51.698Z,1.00
2022-09-10T02:29:19.487Z,2.00
2022-09-10T02:31:48.179Z,2.20
2022-09-10T02:34:16.169Z,1.00
2022-09-10T02:36:43.899Z,1.00
2022-09-10T02:39:11.529Z,0.00
2022-09-10T02:41:41.297Z,3.00
2022-09-10T02:44:08.937Z,1.40
2022-09-10T02:46:36.651Z,2.20
2022-09-10T02:49:04.285Z,0.00
2022-09-10T02:51:32.241Z,1.00
2022-09-10T02:53:59.849Z,1.00
2022-09-10T02:56:27.421Z,2.60
2022-09-10T02:58:55.097Z,3.00
2022-09-10T03:01:22.701Z,3.75
2022-09-10T03:03:50.661Z,3.00
2022-09-10T03:06:18.484Z,3.00
2022-09-10T03:08:46.222Z,3.25
2022-09-10T03:11:16.565Z,1.00
2022-09-10T03:13:46.395Z,4.00
2022-09-10T03:16:14.511Z,3.00
2022-09-10T03:18:42.243Z,3.40
2022-09-10T03:21:09.968Z,1.00
2022-09-10T03:23:37.929Z,3.40
2022-09-10T03:26:06.300Z,4.00
2022-09-10T03:28:34.264Z,4.00
2022-09-10T03:31:02.253Z,5.50
2022-09-10T03:33:35.048Z,3.00
2022-09-10T03:36:02.843Z,3.00
2022-09-10T03:38:30.566Z,4.00
2022-09-10T03:40:58.322Z,5.50
2022-09-10T03:43:27.291Z,3.00
2022-09-10T03:45:55.496Z,3.50
2022-09-10T03:48:23.121Z,4.00
2022-09-10T03:50:51.363Z,3.00
2022-09-10T03:53:19.283Z,3.00
2022-09-10T03:55:46.888Z,4.00
2022-09-10T03:58:14.513Z,3.50
2022-09-10T04:00:43.059Z,3.25
2022-09-10T04:03:11.392Z,4.00
2022-09-10T04:05:39.016Z,6.25
2022-09-10T04:08:07.612Z,3.50
2022-09-10T04:10:35.458Z,1.00
2022-09-10T04:13:03.304Z,4.00
2022-09-10T04:15:31.005Z,5.50
2022-09-10T04:17:58.565Z,4.00
2022-09-10T04:20:26.194Z,3.50
2022-09-10T04:22:54.026Z,4.00
2022-09-10T04:25:21.662Z,4.00
2022-09-10T04:27:49.310Z,1.00
2022-09-10T04:30:16.990Z,5.50
2022-09-10T04:32:45.430Z,2.50
2022-09-10T04:35:15.489Z,1.00
2022-09-10T04:37:43.190Z,3.50
2022-09-10T04:40:10.979Z,3.75
2022-09-10T04:42:38.952Z,6.00
2022-09-10T04:45:06.704Z,7.50
2022-09-10T04:47:34.447Z,4.00
2022-09-10T04:50:02.179Z,5.00
2022-09-10T04:52:30.650Z,4.50
2022-09-10T04:54:58.332Z,6.00
2022-09-10T04:57:26.080Z,4.00
2022-09-10T04:59:54.162Z,7.00
2022-09-10T05:02:22.058Z,8.50
2022-09-10T05:04:50.901Z,3.00
2022-09-10T05:07:18.496Z,3.75
2022-09-10T05:09:46.110Z,4.00
2022-09-10T05:12:15.491Z,7.00
2022-09-10T05:14:43.251Z,5.50
2022-09-10T05:17:11.498Z,4.00
2022-09-10T05:19:39.164Z,5.50
2022-09-10T05:22:07.069Z,5.50
2022-09-10T05:24:35.305Z,6.75
2022-09-10T05:27:02.951Z,6.00
2022-09-10T05:29:30.516Z,6.50
2022-09-10T05:31:58.551Z,6.50
2022-09-10T05:34:26.249Z,6.00
2022-09-10T05:36:53.897Z,3.00
2022-09-10T05:39:21.528Z,4.00
2022-09-10T05:41:49.471Z,3.00
2022-09-10T05:44:17.703Z,5.00
2022-09-10T05:46:45.343Z,3.00
2022-09-10T05:49:13.315Z,3.60
2022-09-10T05:51:41.603Z,3.50
2022-09-10T05:54:09.317Z,3.40
2022-09-10T05:56:36.951Z,3.80
2022-09-10T05:59:05.808Z,3.50
2022-09-10T06:01:33.359Z,3.00
2022-09-10T06:04:01.918Z,4.00
2022-09-10T06:06:29.477Z,6.20
2022-09-10T06:08:57.124Z,4.00
2022-09-10T06:11:24.836Z,4.00
2022-09-10T06:13:53.462Z,3.20
2022-09-10T06:16:21.183Z,4.00
2022-09-10T06:18:48.871Z,4.40
2022-09-10T06:21:16.549Z,4.40
2022-09-10T06:23:45.513Z,5.20
2022-09-10T06:26:13.077Z,6.00
2022-09-10T06:28:40.823Z,4.00
2022-09-10T06:31:08.510Z,6.50
2022-09-10T06:33:36.453Z,6.50
2022-09-10T06:36:04.132Z,8.25
2022-09-10T06:38:33.760Z,6.00
2022-09-10T06:41:01.422Z,5.75
2022-09-10T06:43:29.336Z,5.00
2022-09-10T06:45:56.900Z,8.00
2022-09-10T06:48:47.550Z,1.50
2022-09-10T06:51:15.749Z,3.50
2022-09-10T06:53:43.679Z,6.00
2022-09-10T06:56:11.411Z,7.25
2022-09-10T06:58:39.292Z,7.75
2022-09-10T07:01:13.929Z,7.50
2022-09-10T07:03:41.579Z,9.50
2022-09-10T07:06:09.892Z,7.25
2022-09-10T07:08:37.552Z,9.00
2022-09-10T07:11:05.526Z,9.00
2022-09-10T07:13:33.173Z,9.00
2022-09-10T07:16:01.008Z,9.75
2022-09-10T07:18:28.905Z,8.00
2022-09-10T07:20:56.724Z,10.25
2022-09-10T07:23:24.354Z,11.00
2022-09-10T07:25:52.302Z,4.25
2022-09-10T07:28:19.875Z,6.25
2022-09-10T07:30:47.812Z,9.00
2022-09-10T07:33:15.733Z,12.00
2022-09-10T07:35:43.448Z,8.20
2022-09-10T07:38:11.515Z,10.00
2022-09-10T07:40:39.272Z,6.00
2022-09-10T07:43:08.377Z,9.20
2022-09-10T07:45:36.053Z,6.20
2022-09-10T07:48:03.822Z,10.00
2022-09-10T07:50:31.563Z,6.40
2022-09-10T07:52:59.420Z,6.00
2022-09-10T07:55:26.985Z,8.60
2022-09-10T07:57:59.881Z,9.20
2022-09-10T08:00:27.752Z,8.60
2022-09-10T08:02:55.715Z,9.40
2022-09-10T08:05:23.580Z,7.40
2022-09-10T08:07:51.243Z,12.00
2022-09-10T08:10:19.861Z,7.00
2022-09-10T08:12:47.848Z,6.40
2022-09-10T08:15:16.474Z,7.00
2022-09-10T08:17:44.120Z,7.00
2022-09-10T08:20:11.779Z,10.00
2022-09-10T08:22:39.409Z,8.20
2022-09-10T08:25:06.965Z,7.80
2022-09-10T08:27:35.368Z,8.20
2022-09-10T08:30:03.084Z,7.40
2022-09-10T08:32:31.360Z,6.60
2022-09-10T08:34:59.103Z,10.80
2022-09-10T08:37:26.845Z,6.40
2022-09-10T08:39:54.589Z,10.40
2022-09-10T08:42:22.666Z,6.00
2022-09-10T08:44:50.324Z,7.80
2022-09-10T08:47:20.586Z,6.20
2022-09-10T08:49:48.279Z,6.00
2022-09-10T08:52:16.767Z,6.00
2022-09-10T08:54:44.575Z,6.20
2022-09-10T08:57:12.401Z,8.60
2022-09-10T08:59:40.752Z,9.00
2022-09-10T09:02:08.708Z,8.20
2022-09-10T09:04:36.557Z,3.40
2022-09-10T09:07:04.757Z,4.80
2022-09-10T09:09:32.343Z,9.40
2022-09-10T09:12:00.203Z,8.60
2022-09-10T09:14:28.186Z,6.60
2022-09-10T09:16:56.024Z,9.40
2022-09-10T09:19:23.888Z,8.80
2022-09-10T09:21:52.283Z,9.80
2022-09-10T09:24:19.960Z,9.00
2022-09-10T09:26:48.112Z,9.00
2022-09-10T09:29:18.220Z,9.60
2022-09-10T09:31:46.584Z,7.00
2022-09-10T09:34:14.240Z,10.40
2022-09-10T09:36:42.607Z,7.60
2022-09-10T09:39:10.220Z,5.80
2022-09-10T09:41:38.676Z,12.20
2022-09-10T09:44:06.875Z,6.60
2022-09-10T09:46:34.572Z,9.20
2022-09-10T09:49:02.233Z,7.00
2022-09-10T09:51:30.813Z,8.40
2022-09-10T09:54:25.708Z,8.40
2022-09-10T09:56:46.180Z,8.80
2022-09-10T09:59:15.200Z,10.80
2022-09-10T10:01:43.029Z,7.40
2022-09-10T10:04:12.009Z,8.80
2022-09-10T10:06:39.671Z,9.20
2022-09-10T10:09:07.392Z,9.20
2022-09-10T10:11:35.057Z,9.40
2022-09-10T10:14:03.047Z,13.20
2022-09-10T10:16:30.619Z,7.40
2022-09-10T10:18:58.268Z,10.00
2022-09-10T10:21:26.020Z,11.20
2022-09-10T10:23:53.973Z,8.80
2022-09-10T10:26:21.676Z,13.00
2022-09-10T10:28:49.396Z,7.60
2022-09-10T10:31:17.042Z,13.40
2022-09-10T10:33:45.481Z,13.80
2022-09-10T10:36:13.217Z,9.40
2022-09-10T10:38:41.371Z,15.60
2022-09-10T10:41:09.821Z,11.00
2022-09-10T10:43:37.781Z,11.00
2022-09-10T10:46:11.224Z,15.00
2022-09-10T10:48:39.565Z,12.60
2022-09-10T10:51:07.463Z,14.80
2022-09-10T10:53:36.300Z,11.60
2022-09-10T10:56:04.154Z,15.60
2022-09-10T10:58:32.003Z,14.60
2022-09-10T11:00:59.839Z,15.00
2022-09-10T11:03:28.277Z,10.80
2022-09-10T11:05:56.214Z,16.00
2022-09-10T11:08:23.858Z,11.60
2022-09-10T11:10:51.768Z,12.40
2022-09-10T11:13:19.490Z,6.00
2022-09-10T11:15:47.125Z,10.40
2022-09-10T11:18:15.196Z,9.20
2022-09-10T11:20:43.391Z,7.00
2022-09-10T11:23:12.366Z,7.00
2022-09-10T11:25:39.955Z,7.40
2022-09-10T11:28:07.645Z,6.80
2022-09-10T11:30:35.329Z,11.40
2022-09-10T11:33:03.298Z,9.20
2022-09-10T11:35:31.619Z,7.80
2022-09-10T11:37:59.309Z,9.80
2022-09-10T11:40:26.981Z,7.80
2022-09-10T11:42:57.225Z,10.40
2022-09-10T11:45:25.302Z,9.20
2022-09-10T11:47:56.658Z,9.80
2022-09-10T11:50:24.258Z,6.60
2022-09-10T11:52:53.525Z,9.60
2022-09-10T11:55:22.087Z,4.00
2022-09-10T11:57:49.841Z,7.00
2022-09-10T12:00:17.557Z,8.50
2022-09-10T12:02:45.568Z,6.25
2022-09-10T12:05:13.211Z,4.00
2022-09-10T12:07:40.838Z,7.00
2022-09-10T12:10:12.266Z,6.00
2022-09-10T12:12:42.230Z,7.00
2022-09-10T12:15:09.914Z,6.25
2022-09-10T12:17:37.689Z,6.75
2022-09-10T12:20:05.705Z,5.50
2022-09-10T12:22:37.063Z,6.00
2022-09-10T12:25:04.775Z,5.40
2022-09-10T12:27:32.397Z,6.00
2022-09-10T12:29:59.983Z,6.00
2022-09-10T12:32:28.750Z,4.00
2022-09-10T12:34:56.381Z,3.00
2022-09-10T12:37:24.129Z,0.60
2022-09-10T12:39:52.118Z,2.60
2022-09-10T12:42:19.848Z,1.40
2022-09-10T12:44:47.644Z,5.20
2022-09-10T12:47:15.408Z,4.00
2022-09-10T12:49:43.132Z,4.40
2022-09-10T12:52:10.851Z,3.00
2022-09-10T12:54:38.602Z,6.40
2022-09-10T12:57:08.392Z,6.60
2022-09-10T12:59:36.051Z,5.20
2022-09-10T13:02:04.153Z,9.20
2022-09-10T13:04:31.860Z,7.00
2022-09-10T13:06:59.526Z,3.60
2022-09-10T13:09:27.128Z,6.80
2022-09-10T13:11:55.688Z,6.00
2022-09-10T13:14:23.482Z,4.40
2022-09-10T13:16:51.132Z,6.60
2022-09-10T13:19:19.604Z,6.20
2022-09-10T13:21:48.271Z,6.00
2022-09-10T13:24:16.438Z,6.00
2022-09-10T13:26:44.062Z,4.80
2022-09-10T13:29:12.492Z,6.60
2022-09-10T13:31:40.266Z,10.00
2022-09-10T13:34:08.335Z,7.60
2022-09-10T13:36:35.970Z,7.40
2022-09-10T13:39:03.641Z,11.40
2022-09-10T13:41:31.942Z,6.60
2022-09-10T13:44:01.319Z,10.00
2022-09-10T13:46:30.568Z,12.00
2022-09-10T13:48:58.585Z,7.00
2022-09-10T13:51:26.269Z,6.00
2022-09-10T13:53:57.008Z,12.00
2022-09-10T13:56:25.027Z,10.80
2022-09-10T13:58:52.663Z,12.80
2022-09-10T14:01:20.407Z,10.40
2022-09-10T14:03:48.379Z,12.20
2022-09-10T14:06:16.081Z,12.40
2022-09-10T14:08:44.090Z,13.80
2022-09-10T14:11:11.831Z,14.00
2022-09-10T14:13:40.452Z,15.60
2022-09-10T14:16:09.495Z,12.40
2022-09-10T14:18:37.522Z,13.20
2022-09-10T14:21:05.128Z,15.50
2022-09-10T14:23:32.890Z,15.50
2022-09-10T14:26:00.537Z,14.20
2022-09-10T14:28:28.252Z,14.60
2022-09-10T14:30:55.972Z,13.80
2022-09-10T14:33:25.989Z,13.20
2022-09-10T14:35:53.684Z,13.00
2022-09-10T14:38:21.385Z,9.00
2022-09-10T14:40:49.820Z,9.60
2022-09-10T14:43:18.895Z,14.75
2022-09-10T14:45:48.012Z,13.40
2022-09-10T14:48:15.679Z,7.00
2022-09-10T14:50:43.987Z,18.00
2022-09-10T14:53:12.663Z,14.20
2022-09-10T14:55:40.313Z,11.80
2022-09-10T14:58:08.078Z,15.40
2022-09-10T15:00:35.843Z,12.20
2022-09-10T15:03:04.522Z,10.50
2022-09-10T15:05:32.240Z,13.80
2022-09-10T15:07:59.960Z,15.40
2022-09-10T15:10:28.760Z,15.20
2022-09-10T15:12:56.741Z,15.00
2022-09-10T15:15:25.118Z,15.80
2022-09-10T15:17:53.803Z,14.50
2022-09-10T15:20:25.892Z,19.00
2022-09-10T15:22:55.444Z,17.20
2022-09-10T15:25:23.088Z,14.60
2022-09-10T15:27:50.915Z,17.40
2022-09-10T15:30:18.670Z,13.00
2022-09-10T15:32:46.934Z,13.40
2022-09-10T15:35:14.561Z,14.40
2022-09-10T15:37:42.291Z,14.20
2022-09-10T15:40:10.337Z,19.00
2022-09-10T15:42:39.070Z,18.40
2022-09-10T15:45:07.282Z,12.20
2022-09-10T15:47:36.401Z,8.80
2022-09-10T15:50:05.028Z,18.00
2022-09-10T15:52:33.056Z,18.00
2022-09-10T15:55:00.790Z,14.20
2022-09-10T15:57:28.476Z,16.80
2022-09-10T15:59:56.218Z,13.60
2022-09-10T16:02:24.243Z,15.80
2022-09-10T16:04:51.921Z,16.80
2022-09-10T16:07:20.341Z,16.00
2022-09-10T16:09:48.335Z,15.60
2022-09-10T16:12:18.448Z,16.40
2022-09-10T16:14:46.866Z,17.40
2022-09-10T16:17:17.498Z,20.60
2022-09-10T16:19:45.243Z,19.40
2022-09-10T16:22:16.396Z,22.00
2022-09-10T16:24:46.422Z,16.80
2022-09-10T16:27:14.091Z,15.60
2022-09-10T16:29:43.686Z,9.80
2022-09-10T16:32:11.847Z,15.80
2022-09-10T16:34:39.866Z,17.40
2022-09-10T16:37:07.892Z,15.20
2022-09-10T16:39:35.559Z,17.00
2022-09-10T16:42:04.260Z,16.80
2022-09-10T16:44:32.547Z,13.00
2022-09-10T16:47:00.234Z,17.40
2022-09-10T16:49:27.917Z,18.40
2022-09-10T16:51:55.753Z,15.40
2022-09-10T16:54:23.531Z,21.20
2022-09-10T16:56:51.565Z,17.40
2022-09-10T16:59:19.711Z,15.00
2022-09-10T17:01:48.574Z,14.20
2022-09-10T17:04:20.663Z,16.00
2022-09-10T17:06:49.196Z,10.00
2022-09-10T17:09:17.745Z,12.00
2022-09-10T17:11:45.440Z,9.20
2022-09-10T17:14:13.076Z,13.80
2022-09-10T17:16:40.670Z,9.40
2022-09-10T17:19:08.877Z,16.00
2022-09-10T17:21:36.609Z,12.60
2022-09-10T17:24:04.252Z,15.60
2022-09-10T17:26:31.867Z,13.00
2022-09-10T17:28:59.465Z,17.40
2022-09-10T17:31:27.605Z,14.60
2022-09-10T17:34:01.163Z,11.80
2022-09-10T17:36:28.892Z,15.20
2022-09-10T17:38:56.612Z,12.20
2022-09-10T17:41:24.325Z,10.80
2022-09-10T17:43:52.018Z,18.80
2022-09-10T17:46:22.490Z,10.60
2022-09-10T17:48:50.252Z,14.80
2022-09-10T17:51:17.993Z,12.40
2022-09-10T17:53:45.693Z,12.80
2022-09-10T17:56:13.275Z,16.80
2022-09-10T17:58:41.097Z,13.80
2022-09-10T18:01:09.259Z,16.80
2022-09-10T18:03:38.253Z,15.20
2022-09-10T18:06:05.950Z,18.40
2022-09-10T18:08:33.895Z,18.40
2022-09-10T18:11:01.910Z,18.40
2022-09-10T18:13:30.910Z,18.60
2022-09-10T18:15:58.693Z,15.80
2022-09-10T18:18:26.550Z,11.40
2022-09-10T18:20:54.227Z,16.00
2022-09-10T18:23:27.148Z,18.00
2022-09-10T18:25:55.618Z,14.20
2022-09-10T18:28:23.328Z,15.80
2022-09-10T18:30:50.959Z,10.20
2022-09-10T18:33:24.669Z,14.80
2022-09-10T18:35:52.286Z,18.00
2022-09-10T18:38:19.911Z,18.40
2022-09-10T18:40:47.534Z,17.20
2022-09-10T18:43:15.543Z,19.80
2022-09-10T18:45:43.131Z,18.80
2022-09-10T18:48:10.944Z,24.20
2022-09-10T18:50:38.608Z,18.00
2022-09-10T18:53:08.635Z,20.80
2022-09-10T18:55:37.304Z,12.60
2022-09-10T18:58:04.999Z,13.80
2022-09-10T19:00:33.572Z,21.80
2022-09-10T19:03:20.120Z,13.20
2022-09-10T19:05:47.802Z,22.60
2022-09-10T19:08:17.604Z,13.50
2022-09-10T19:10:45.291Z,23.60
2022-09-10T19:13:13.146Z,18.60
2022-09-10T19:15:40.870Z,17.20
2022-09-10T19:18:08.640Z,18.80
2022-09-10T19:20:36.337Z,18.80
2022-09-10T19:23:04.769Z,21.50
2022-09-10T19:25:32.772Z,22.00
2022-09-10T19:28:00.487Z,18.00
2022-09-10T19:30:30.590Z,18.20
2022-09-10T19:33:00.610Z,22.00
2022-09-10T19:35:29.750Z,25.00
2022-09-10T19:37:58.782Z,23.00
2022-09-10T19:40:26.548Z,16.00
2022-09-10T19:42:54.639Z,18.25
2022-09-10T19:45:22.301Z,20.50
2022-09-10T19:47:50.017Z,23.80
2022-09-10T19:50:22.710Z,21.00
2022-09-10T19:52:53.868Z,27.00
2022-09-10T19:55:21.619Z,17.20
2022-09-10T19:57:49.445Z,21.80
2022-09-10T20:00:36.067Z,22.00
2022-09-10T20:03:04.949Z,21.75
2022-09-10T20:05:34.164Z,17.00
2022-09-10T20:08:01.914Z,19.80
2022-09-10T20:10:29.828Z,18.40
2022-09-10T20:12:57.714Z,23.25
2022-09-10T20:15:25.469Z,23.80
2022-09-10T20:17:53.141Z,21.20
2022-09-10T20:20:22.094Z,14.20
2022-09-10T20:22:49.860Z,21.00
2022-09-10T20:25:17.939Z,17.60
2022-09-10T20:27:45.629Z,23.60
2022-09-10T20:30:13.256Z,25.80
2022-09-10T20:32:41.466Z,21.00
2022-09-10T20:35:09.115Z,14.80
2022-09-10T20:37:37.022Z,24.50
2022-09-10T20:40:04.915Z,25.40
2022-09-10T20:42:33.975Z,20.00
2022-09-10T20:45:02.724Z,16.00
2022-09-10T20:47:31.650Z,28.00
2022-09-10T20:49:59.413Z,22.25
2022-09-10T20:52:29.461Z,24.40
2022-09-10T20:54:57.093Z,23.80
2022-09-10T20:57:24.883Z,21.40
2022-09-10T20:59:52.513Z,17.80
2022-09-10T21:02:26.486Z,23.00
2022-09-10T21:04:54.238Z,16.40
2022-09-10T21:07:22.001Z,20.20
2022-09-10T21:09:49.674Z,16.80
2022-09-10T21:12:17.825Z,25.50
2022-09-10T21:14:45.488Z,28.20
2022-09-10T21:17:13.180Z,24.75
2022-09-10T21:19:40.791Z,26.75
2022-09-10T21:22:09.403Z,19.00
2022-09-10T21:24:39.589Z,23.75
2022-09-10T21:27:07.278Z,24.50
2022-09-10T21:29:35.424Z,21.25
2022-09-10T21:32:03.507Z,18.50
2022-09-10T21:34:32.655Z,24.40
2022-09-10T21:37:00.300Z,28.25
2022-09-10T21:39:27.932Z,28.50
2022-09-10T21:41:58.706Z,27.75
2022-09-10T21:44:26.288Z,28.75
2022-09-10T21:46:54.038Z,29.50
2022-09-10T21:49:21.629Z,24.50
2022-09-10T21:51:49.692Z,20.75
2022-09-10T21:54:18.734Z,21.50
2022-09-10T21:56:46.357Z,19.25
2022-09-10T21:59:14.638Z,27.25
2022-09-10T22:01:42.523Z,24.75
2022-09-10T22:04:20.000Z,20.00
2022-09-10T22:06:50.046Z,23.50
2022-09-10T22:09:17.743Z,11.75
2022-09-10T22:11:46.004Z,21.25
2022-09-10T22:14:13.671Z,20.00
2022-09-10T22:16:41.377Z,26.00
2022-09-10T22:19:09.149Z,20.50
2022-09-10T22:21:38.489Z,18.00
2022-09-10T22:24:06.554Z,19.80
2022-09-10T22:26:36.052Z,25.50
2022-09-10T22:29:03.860Z,22.50
2022-09-10T22:31:32.365Z,25.20
2022-09-10T22:34:00.400Z,16.50
2022-09-10T22:36:29.027Z,22.25
2022-09-10T22:38:57.179Z,25.50
2022-09-10T22:41:24.789Z,24.50
2022-09-10T22:43:53.703Z,19.50
2022-09-10T22:46:21.522Z,25.75
2022-09-10T22:48:49.127Z,27.50
2022-09-10T22:51:16.812Z,21.25
2022-09-10T22:53:44.434Z,20.60
2022-09-10T22:56:11.995Z,25.00
2022-09-10T22:58:39.738Z,26.75
2022-09-10T23:01:07.742Z,18.50
2022-09-10T23:03:36.867Z,23.75
2022-09-10T23:06:06.290Z,20.25
2022-09-10T23:08:34.299Z,21.60
2022-09-10T23:11:02.219Z,26.50
2022-09-10T23:13:30.126Z,30.50
2022-09-10T23:15:57.815Z,22.75
2022-09-10T23:18:25.530Z,26.50
2022-09-10T23:20:53.164Z,17.50
2022-09-10T23:23:21.148Z,21.25
2022-09-10T23:25:48.823Z,22.75
2022-09-10T23:28:16.360Z,18.75
2022-09-10T23:30:45.762Z,15.20
2022-09-10T23:33:13.907Z,22.40
2022-09-10T23:35:41.683Z,13.80
2022-09-10T23:38:09.834Z,19.50
2022-09-10T23:40:38.171Z,18.25
2022-09-10T23:43:06.117Z,15.00
2022-09-10T23:45:33.861Z,19.00
2022-09-10T23:48:01.464Z,18.50
2022-09-10T23:50:29.291Z,18.00
2022-09-10T23:52:58.243Z,20.50
2022-09-10T23:55:25.880Z,17.50
2022-09-10T23:57:53.831Z,17.25
